Time;durP1;ratioP1;P1;durP2;ratioP2;P2;SDS_P1;SDS_P2;PMS_P1;PMS_P2;Temp;Humidity;BMP_temperature;BMP_pressure;BME280_temperature;BME280_humidity;BME280_pressure;Samples;Min_cycle;Max_cycle;Signal;HPM_P1;HPM_P2
2021/06/17 00:00:37;;;;;;;26.35;19.42;;;;;;;;;;5117693;27;20497;-81
2021/06/17 00:03:04;;;;;;;23.83;20.00;;;;;;;;;;5111696;27;20053;-82
2021/06/17 00:05:31;;;;;;;22.88;19.85;;;;;;;;;;5111671;27;20042;-81
2021/06/17 00:07:57;;;;;;;23.05;20.42;;;;;;;;;;5113666;27;20023;-82
2021/06/17 00:10:29;;;;;;;23.48;20.35;;;;;;;;;;5114767;27;20061;-80
2021/06/17 00:12:56;;;;;;;27.02;21.08;;;;;;;;;;5117433;27;20029;-81
2021/06/17 00:15:23;;;;;;;23.88;20.75;;;;;;;;;;5121548;27;20016;-81
2021/06/17 00:17:49;;;;;;;28.95;21.17;;;;;;;;;;5114807;27;20100;-81
2021/06/17 00:20:15;;;;;;;26.33;20.95;;;;;;;;;;5115264;27;20225;-82
2021/06/17 00:22:41;;;;;;;23.00;20.67;;;;;;;;;;5127570;27;20045;-82
2021/06/17 00:25:08;;;;;;;24.17;20.97;;;;;;;;;;5124142;27;20098;-82
2021/06/17 00:27:34;;;;;;;26.02;20.17;;;;;;;;;;5130789;27;20102;-83
2021/06/17 00:30:00;;;;;;;25.17;22.02;;;;;;;;;;5105051;27;20189;-82
2021/06/17 00:32:26;;;;;;;27.98;21.88;;;;;;;;;;5121342;27;20148;-82
2021/06/17 00:34:52;;;;;;;25.38;22.25;;;;;;;;;;5092553;28;20036;-81
2021/06/17 00:37:18;;;;;;;28.23;21.90;;;;;;;;;;5119369;27;20447;-82
2021/06/17 00:39:44;;;;;;;24.17;21.50;;;;;;;;;;5110556;28;20118;-82
2021/06/17 00:42:10;;;;;;;24.67;21.55;;;;;;;;;;5112831;27;20044;-81
2021/06/17 00:44:36;;;;;;;21.95;19.48;;;;;;;;;;5118427;27;20083;-80
2021/06/17 00:47:02;;;;;;;29.77;22.13;;;;;;;;;;5118465;27;20027;-81
2021/06/17 00:49:28;;;;;;;24.23;20.77;;;;;;;;;;5115117;27;20740;-81
2021/06/17 00:51:54;;;;;;;27.15;20.02;;;;;;;;;;5123698;27;20027;-81
2021/06/17 00:54:32;;;;;;;27.83;19.95;;;;;;;;;;5111145;27;20055;-81
2021/06/17 00:57:06;;;;;;;23.90;21.23;;;;;;;;;;5110418;27;20026;-81
2021/06/17 00:59:33;;;;;;;24.60;21.13;;;;;;;;;;5101493;27;20071;-80
2021/06/17 01:01:59;;;;;;;24.73;20.70;;;;;;;;;;5132834;27;20027;-80
2021/06/17 01:04:26;;;;;;;25.57;20.73;;;;;;;;;;5119167;27;20043;-80
2021/06/17 01:06:52;;;;;;;25.35;20.00;;;;;;;;;;5110774;28;20543;-81
2021/06/17 01:09:22;;;;;;;25.33;21.33;;;;;;;;;;5119624;27;20023;-81
2021/06/17 01:11:48;;;;;;;26.98;20.67;;;;;;;;;;5118377;27;20645;-80
2021/06/17 01:14:30;;;;;;;27.52;22.85;;;;;;;;;;5118390;27;20040;-81
2021/06/17 01:17:04;;;;;;;24.52;22.13;;;;;;;;;;5112399;28;20100;-81
2021/06/17 01:19:30;;;;;;;29.42;23.02;;;;;;;;;;5119703;28;20534;-81
2021/06/17 01:22:07;;;;;;;25.10;22.40;;;;;;;;;;5101633;28;20065;-80
2021/06/17 01:24:41;;;;;;;28.98;22.83;;;;;;;;;;5116430;28;20054;-82
2021/06/17 01:27:26;;;;;;;25.70;22.90;;;;;;;;;;5116053;28;20027;-81
2021/06/17 01:29:54;;;;;;;24.80;22.25;;;;;;;;;;5113026;28;20027;-82
2021/06/17 01:32:21;;;;;;;26.20;21.35;;;;;;;;;;5094986;28;20027;-82
2021/06/17 01:34:49;;;;;;;24.23;21.58;;;;;;;;;;5110272;28;20474;-82
2021/06/17 01:37:17;;;;;;;24.05;20.60;;;;;;;;;;5110754;28;20077;-82
2021/06/17 01:39:43;;;;;;;23.17;20.23;;;;;;;;;;5109697;28;20024;-82
2021/06/17 01:42:10;;;;;;;25.25;20.77;;;;;;;;;;5118310;28;20433;-80
2021/06/17 01:44:36;;;;;;;25.30;20.38;;;;;;;;;;5120433;28;20054;-82
2021/06/17 01:47:06;;;;;;;22.70;20.27;;;;;;;;;;5120745;28;20143;-81
2021/06/17 01:49:35;;;;;;;26.90;20.17;;;;;;;;;;5110441;28;20056;-81
2021/06/17 01:52:01;;;;;;;25.38;20.85;;;;;;;;;;5097868;28;20075;-81
2021/06/17 01:54:28;;;;;;;22.33;20.02;;;;;;;;;;5118730;27;20024;-82
2021/06/17 01:56:55;;;;;;;28.42;21.55;;;;;;;;;;5128832;27;20040;-81
2021/06/17 01:59:22;;;;;;;30.10;21.05;;;;;;;;;;5130223;27;20030;-80
2021/06/17 02:01:49;;;;;;;22.80;20.38;;;;;;;;;;5117622;27;20059;-79
2021/06/17 02:04:19;;;;;;;25.73;21.30;;;;;;;;;;5123728;27;20541;-81
2021/06/17 02:06:45;;;;;;;23.67;20.85;;;;;;;;;;5125700;27;20500;-81
2021/06/17 02:09:11;;;;;;;24.55;21.20;;;;;;;;;;5117239;27;20068;-81
2021/06/17 02:11:37;;;;;;;22.58;20.17;;;;;;;;;;5117893;27;20035;-81
2021/06/17 02:14:04;;;;;;;29.17;19.88;;;;;;;;;;5121487;27;20016;-82
2021/06/17 02:16:32;;;;;;;23.80;21.13;;;;;;;;;;5113991;27;20023;-81
2021/06/17 02:18:58;;;;;;;22.00;19.33;;;;;;;;;;5120320;27;20089;-81
2021/06/17 02:21:25;;;;;;;22.80;20.40;;;;;;;;;;5098070;27;20020;-81
2021/06/17 02:23:54;;;;;;;25.73;20.27;;;;;;;;;;5128361;27;20469;-81
2021/06/17 02:26:21;;;;;;;23.45;20.42;;;;;;;;;;5115366;27;20058;-80
2021/06/17 02:28:48;;;;;;;24.77;22.10;;;;;;;;;;5114209;27;20043;-81
2021/06/17 02:31:15;;;;;;;25.08;20.65;;;;;;;;;;5128765;27;20067;-80
2021/06/17 02:33:41;;;;;;;;;;;;;;;;;;5123582;27;20058;-81
2021/06/17 02:36:07;;;;;;;26.35;20.50;;;;;;;;;;5143208;27;19907;-80
2021/06/17 02:38:35;;;;;;;24.95;20.48;;;;;;;;;;5128796;27;20100;-81
2021/06/17 02:41:03;;;;;;;22.95;20.58;;;;;;;;;;5130644;27;20023;-82
2021/06/17 02:43:30;;;;;;;27.45;21.25;;;;;;;;;;5121243;27;20480;-80
2021/06/17 02:45:56;;;;;;;;;;;;;;;;;;5127800;27;20030;-82
2021/06/17 02:48:22;;;;;;;24.75;19.77;;;;;;;;;;5114384;27;19907;-82
2021/06/17 02:50:48;;;;;;;22.92;19.55;;;;;;;;;;5120420;27;20059;-79
2021/06/17 02:53:15;;;;;;;26.00;20.40;;;;;;;;;;5115933;27;20039;-82
2021/06/17 02:55:41;;;;;;;25.30;19.92;;;;;;;;;;5129790;27;20418;-80
2021/06/17 02:58:23;;;;;;;25.27;20.55;;;;;;;;;;5131208;27;20023;-81
2021/06/17 03:00:53;;;;;;;24.50;21.23;;;;;;;;;;5123189;27;20035;-80
2021/06/17 03:03:38;;;;;;;23.65;18.98;;;;;;;;;;5126912;27;20047;-80
2021/06/17 03:06:15;;;;;;;24.80;20.27;;;;;;;;;;5117960;27;20036;-81
2021/06/17 03:08:45;;;;;;;24.05;19.98;;;;;;;;;;5129504;27;20039;-81
2021/06/17 03:11:13;;;;;;;24.50;20.77;;;;;;;;;;5112305;28;20039;-80
2021/06/17 03:13:40;;;;;;;;;;;;;;;;;;5120966;27;20038;-81
2021/06/17 03:16:06;;;;;;;23.95;20.63;;;;;;;;;;5100612;28;19908;-81
2021/06/17 03:18:33;;;;;;;27.45;20.52;;;;;;;;;;5122648;27;20137;-81
2021/06/17 03:21:01;;;;;;;22.98;20.20;;;;;;;;;;5112808;28;20015;-80
2021/06/17 03:23:28;;;;;;;24.05;20.80;;;;;;;;;;5111993;27;20076;-81
2021/06/17 03:25:55;;;;;;;24.90;21.20;;;;;;;;;;5125043;27;20023;-80
2021/06/17 03:28:22;;;;;;;27.50;20.65;;;;;;;;;;5119691;27;20031;-81
2021/06/17 03:30:49;;;;;;;25.42;20.38;;;;;;;;;;5104869;27;20361;-81
2021/06/17 03:33:17;;;;;;;26.77;21.10;;;;;;;;;;5100474;27;20031;-80
2021/06/17 03:35:43;;;;;;;25.92;21.02;;;;;;;;;;5113779;27;20035;-81
2021/06/17 03:38:10;;;;;;;26.25;20.70;;;;;;;;;;5111971;28;20028;-80
2021/06/17 03:40:36;;;;;;;28.45;22.38;;;;;;;;;;5112376;27;20034;-80
2021/06/17 03:43:04;;;;;;;25.30;21.65;;;;;;;;;;5123068;27;20400;-82
2021/06/17 03:45:30;;;;;;;23.60;21.15;;;;;;;;;;5123252;27;20080;-81
2021/06/17 03:47:56;;;;;;;25.13;21.10;;;;;;;;;;5114094;27;20027;-81
2021/06/17 03:50:24;;;;;;;29.98;23.02;;;;;;;;;;5126901;27;20031;-80
2021/06/17 03:52:49;;;;;;;;;;;;;;;;;;5110168;27;20047;-78
2021/06/17 03:55:16;;;;;;;26.83;19.83;;;;;;;;;;5123292;27;19960;-81
2021/06/17 03:57:43;;;;;;;23.13;20.40;;;;;;;;;;5121802;27;20481;-82
2021/06/17 04:00:11;;;;;;;24.23;19.67;;;;;;;;;;5107579;27;20117;-80
2021/06/17 04:02:37;;;;;;;23.73;21.10;;;;;;;;;;5121535;27;20023;-81
2021/06/17 04:05:04;;;;;;;23.67;19.90;;;;;;;;;;5124608;27;20056;-82
2021/06/17 04:07:30;;;;;;;26.05;20.02;;;;;;;;;;5129867;27;20026;-80
2021/06/17 04:09:59;;;;;;;21.52;18.70;;;;;;;;;;5114307;27;20039;-81
2021/06/17 04:12:28;;;;;;;21.05;18.83;;;;;;;;;;5120344;27;20106;-81
2021/06/17 04:14:55;;;;;;;22.40;18.77;;;;;;;;;;5128251;27;20055;-81
2021/06/17 04:17:27;;;;;;;23.23;19.15;;;;;;;;;;5112844;27;20031;-81
2021/06/17 04:19:53;;;;;;;22.23;19.85;;;;;;;;;;5127871;27;20016;-81
2021/06/17 04:22:20;;;;;;;22.15;19.25;;;;;;;;;;5113413;27;20438;-81
2021/06/17 04:24:51;;;;;;;24.50;19.58;;;;;;;;;;5119925;27;20043;-82
2021/06/17 04:27:19;;;;;;;21.83;19.52;;;;;;;;;;5114208;27;20646;-81
2021/06/17 04:29:45;;;;;;;26.95;21.17;;;;;;;;;;5119581;27;20027;-80
2021/06/17 04:32:13;;;;;;;21.75;19.33;;;;;;;;;;5116657;27;20035;-81
2021/06/17 04:34:40;;;;;;;23.63;19.98;;;;;;;;;;5120388;27;20023;-81
2021/06/17 04:37:08;;;;;;;21.88;19.65;;;;;;;;;;5128961;27;20038;-81
2021/06/17 04:39:34;;;;;;;23.77;18.05;;;;;;;;;;5119099;27;20031;-81
2021/06/17 04:42:00;;;;;;;21.27;19.08;;;;;;;;;;5113469;27;20469;-81
2021/06/17 04:44:27;;;;;;;24.43;18.60;;;;;;;;;;5111315;28;20550;-81
2021/06/17 04:46:54;;;;;;;21.90;18.33;;;;;;;;;;5126600;27;20289;-80
2021/06/17 04:49:20;;;;;;;21.27;18.80;;;;;;;;;;5119251;27;20020;-81
2021/06/17 04:51:46;;;;;;;24.23;20.55;;;;;;;;;;5110002;28;20495;-81
2021/06/17 04:54:18;;;;;;;26.70;20.67;;;;;;;;;;5120963;27;20023;-81
2021/06/17 04:56:45;;;;;;;23.40;20.90;;;;;;;;;;5123958;27;20043;-81
2021/06/17 04:59:11;;;;;;;;;;;;;;;;;;5119331;27;20065;-80
2021/06/17 05:01:40;;;;;;;27.80;20.10;;;;;;;;;;5111465;27;19912;-81
2021/06/17 05:04:06;;;;;;;26.23;20.45;;;;;;;;;;5097505;27;20024;-81
2021/06/17 05:06:35;;;;;;;27.43;20.23;;;;;;;;;;5110671;28;20128;-81
2021/06/17 05:11:46;;;;;;;22.48;19.58;;;;;;;;;;5129735;27;20045;-81
2021/06/17 05:14:12;;;;;;;27.52;20.45;;;;;;;;;;5127570;27;20027;-80
2021/06/17 05:16:38;;;;;;;22.30;19.90;;;;;;;;;;5118002;28;20122;-78
2021/06/17 05:19:05;;;;;;;19.35;17.20;;;;;;;;;;5106802;28;20067;-80
2021/06/17 05:21:31;;;;;;;18.52;15.93;;;;;;;;;;5118506;28;20019;-78
2021/06/17 05:23:57;;;;;;;18.90;16.73;;;;;;;;;;5121303;28;20502;-79
2021/06/17 05:26:23;;;;;;;18.25;16.48;;;;;;;;;;5129650;28;20027;-78
2021/06/17 05:28:49;;;;;;;22.63;16.98;;;;;;;;;;5105897;28;20089;-79
2021/06/17 05:31:15;;;;;;;23.83;17.00;;;;;;;;;;5129712;27;20031;-82
2021/06/17 05:33:44;;;;;;;22.37;17.03;;;;;;;;;;5121653;27;20269;-82
2021/06/17 05:36:10;;;;;;;19.92;16.38;;;;;;;;;;5128228;27;20031;-81
2021/06/17 05:38:36;;;;;;;26.02;17.13;;;;;;;;;;5096996;28;20385;-83
2021/06/17 05:41:03;;;;;;;22.00;16.85;;;;;;;;;;5130086;27;20080;-80
2021/06/17 05:43:29;;;;;;;24.00;17.33;;;;;;;;;;5114042;27;20031;-79
2021/06/17 05:45:55;;;;;;;21.58;17.88;;;;;;;;;;5114610;27;20035;-79
2021/06/17 05:48:21;;;;;;;21.98;17.60;;;;;;;;;;5120904;27;20019;-80
2021/06/17 05:50:47;;;;;;;22.48;18.60;;;;;;;;;;5113995;28;20066;-81
2021/06/17 05:53:13;;;;;;;22.13;19.00;;;;;;;;;;5113747;27;20048;-79
2021/06/17 05:55:39;;;;;;;21.15;18.67;;;;;;;;;;5127985;27;20034;-82
2021/06/17 05:58:05;;;;;;;19.48;17.33;;;;;;;;;;5096556;28;20031;-81
2021/06/17 06:00:31;;;;;;;22.20;18.77;;;;;;;;;;5129494;27;20032;-81
2021/06/17 06:02:57;;;;;;;23.13;18.92;;;;;;;;;;5121826;27;20038;-82
2021/06/17 06:05:24;;;;;;;20.35;18.15;;;;;;;;;;5129807;27;20035;-81
2021/06/17 06:07:59;;;;;;;19.52;17.33;;;;;;;;;;5127612;27;20027;-78
2021/06/17 06:10:26;;;;;;;21.75;18.73;;;;;;;;;;5099555;28;20480;-80
2021/06/17 06:12:52;;;;;;;23.52;18.55;;;;;;;;;;5113456;27;20022;-79
2021/06/17 06:15:18;;;;;;;26.48;19.27;;;;;;;;;;5125097;27;20031;-78
2021/06/17 06:17:44;;;;;;;23.05;18.05;;;;;;;;;;5115161;27;20364;-79
2021/06/17 06:20:10;;;;;;;23.30;18.40;;;;;;;;;;5118695;27;20107;-79
2021/06/17 06:22:36;;;;;;;23.58;17.40;;;;;;;;;;5116634;27;20068;-79
2021/06/17 06:25:02;;;;;;;20.60;18.42;;;;;;;;;;5098269;27;20031;-78
2021/06/17 06:27:28;;;;;;;25.13;19.27;;;;;;;;;;5113173;27;20028;-79
2021/06/17 06:29:56;;;;;;;28.95;19.33;;;;;;;;;;5118780;27;20058;-79
2021/06/17 06:32:22;;;;;;;22.65;18.92;;;;;;;;;;5120357;27;20031;-79
2021/06/17 06:34:47;;;;;;;19.60;17.67;;;;;;;;;;5121946;27;20536;-79
2021/06/17 06:37:14;;;;;;;23.67;19.08;;;;;;;;;;5112833;27;20042;-79
2021/06/17 06:39:40;;;;;;;23.77;18.55;;;;;;;;;;5131905;27;20426;-79
2021/06/17 06:42:07;;;;;;;23.13;18.25;;;;;;;;;;5106856;28;20027;-78
2021/06/17 06:44:33;;;;;;;34.47;19.13;;;;;;;;;;5129285;27;20030;-79
2021/06/17 06:46:59;;;;;;;24.98;18.38;;;;;;;;;;5125653;27;20015;-79
2021/06/17 06:49:26;;;;;;;21.27;18.90;;;;;;;;;;5124560;27;20039;-79
2021/06/17 06:51:52;;;;;;;23.67;17.83;;;;;;;;;;5123294;27;20288;-78
2021/06/17 06:54:20;;;;;;;20.45;18.13;;;;;;;;;;5124547;27;20027;-79
2021/06/17 06:56:47;;;;;;;19.77;17.67;;;;;;;;;;5128266;27;20122;-79
2021/06/17 06:59:13;;;;;;;21.48;19.20;;;;;;;;;;5106317;27;20023;-79
2021/06/17 07:01:40;;;;;;;20.60;17.63;;;;;;;;;;5126478;27;20566;-80
2021/06/17 07:04:06;;;;;;;27.00;18.33;;;;;;;;;;5112385;28;20043;-80
2021/06/17 07:06:33;;;;;;;22.42;18.27;;;;;;;;;;5120306;27;20261;-79
2021/06/17 07:08:59;;;;;;;;;;;;;;;;;;5119446;27;20035;-79
2021/06/17 07:11:25;;;;;;;24.33;17.33;;;;;;;;;;5126570;27;19919;-79
2021/06/17 07:13:51;;;;;;;20.15;17.70;;;;;;;;;;5117927;27;20076;-80
2021/06/17 07:16:17;;;;;;;20.23;17.38;;;;;;;;;;5125706;27;20397;-80
2021/06/17 07:18:43;;;;;;;21.83;16.65;;;;;;;;;;5103612;27;20135;-79
2021/06/17 07:21:09;;;;;;;17.80;15.98;;;;;;;;;;5127690;27;20129;-78
2021/06/17 07:23:36;;;;;;;21.08;17.70;;;;;;;;;;5125689;27;20109;-78
2021/06/17 07:26:02;;;;;;;19.83;16.95;;;;;;;;;;5112788;27;20043;-79
2021/06/17 07:28:28;;;;;;;23.30;17.58;;;;;;;;;;5121794;27;20768;-78
2021/06/17 07:30:55;;;;;;;21.23;16.77;;;;;;;;;;5126039;27;20130;-78
2021/06/17 07:33:21;;;;;;;21.67;17.67;;;;;;;;;;5120204;27;20045;-78
2021/06/17 07:35:47;;;;;;;21.85;17.85;;;;;;;;;;5121727;27;20040;-77
2021/06/17 07:38:13;;;;;;;21.63;17.27;;;;;;;;;;5117019;27;20023;-78
2021/06/17 07:40:41;;;;;;;23.08;17.08;;;;;;;;;;5111327;28;20222;-77
2021/06/17 07:43:08;;;;;;;18.35;16.50;;;;;;;;;;5127223;27;20020;-77
2021/06/17 07:45:34;;;;;;;20.10;17.03;;;;;;;;;;5127750;27;20114;-77
2021/06/17 07:48:00;;;;;;;24.70;18.15;;;;;;;;;;5121373;27;20283;-77
2021/06/17 07:50:26;;;;;;;19.23;16.85;;;;;;;;;;5117099;27;20027;-77
2021/06/17 07:52:52;;;;;;;23.85;16.80;;;;;;;;;;5128955;27;20055;-77
2021/06/17 07:55:18;;;;;;;21.08;15.43;;;;;;;;;;5115862;27;20468;-77
2021/06/17 07:57:44;;;;;;;24.90;17.03;;;;;;;;;;5115819;27;20092;-77
2021/06/17 08:00:11;;;;;;;19.30;16.77;;;;;;;;;;5112764;27;20023;-76
2021/06/17 08:02:37;;;;;;;29.10;20.40;;;;;;;;;;5116366;27;20063;-77
2021/06/17 08:05:03;;;;;;;23.23;17.63;;;;;;;;;;5123250;27;20062;-77
2021/06/17 08:07:29;;;;;;;20.50;17.77;;;;;;;;;;5118594;27;20050;-76
2021/06/17 08:09:55;;;;;;;23.17;15.90;;;;;;;;;;5118895;27;20063;-77
2021/06/17 08:12:23;;;;;;;31.37;17.77;;;;;;;;;;5122015;27;20069;-78
2021/06/17 08:14:49;;;;;;;21.27;16.90;;;;;;;;;;5123268;27;20019;-76
2021/06/17 08:17:15;;;;;;;22.98;18.02;;;;;;;;;;5122141;27;20039;-77
2021/06/17 08:19:41;;;;;;;21.35;16.77;;;;;;;;;;5126588;27;20060;-77
2021/06/17 08:22:10;;;;;;;20.55;17.25;;;;;;;;;;5111264;28;20106;-78
2021/06/17 08:24:39;;;;;;;22.27;16.00;;;;;;;;;;5112193;27;20366;-78
2021/06/17 08:27:06;;;;;;;22.92;16.27;;;;;;;;;;5110555;28;20114;-77
2021/06/17 08:29:31;;;;;;;20.38;16.67;;;;;;;;;;5111536;27;20035;-77
2021/06/17 08:31:58;;;;;;;24.17;16.50;;;;;;;;;;5118859;27;20067;-77
2021/06/17 08:34:24;;;;;;;22.05;16.90;;;;;;;;;;5110463;28;20114;-76
2021/06/17 08:36:50;;;;;;;20.35;15.52;;;;;;;;;;5111042;27;20029;-77
2021/06/17 08:39:17;;;;;;;19.23;16.00;;;;;;;;;;5125034;27;20058;-77
2021/06/17 08:41:43;;;;;;;19.55;16.42;;;;;;;;;;5129790;27;20493;-78
2021/06/17 08:44:09;;;;;;;20.23;18.23;;;;;;;;;;5118224;27;20521;-76
2021/06/17 08:46:35;;;;;;;26.33;16.73;;;;;;;;;;5093603;28;20036;-77
2021/06/17 08:49:01;;;;;;;22.08;18.15;;;;;;;;;;5110634;27;20039;-77
2021/06/17 08:51:27;;;;;;;19.33;17.20;;;;;;;;;;5111236;28;20062;-77
2021/06/17 08:53:53;;;;;;;26.17;18.38;;;;;;;;;;5118382;27;20071;-76
2021/06/17 08:56:19;;;;;;;19.57;17.17;;;;;;;;;;5110291;27;20028;-77
2021/06/17 08:58:46;;;;;;;24.70;17.50;;;;;;;;;;5110163;27;20028;-77
2021/06/17 09:01:12;;;;;;;18.65;15.55;;;;;;;;;;5126776;27;20047;-78
2021/06/17 09:03:43;;;;;;;23.77;17.13;;;;;;;;;;5118961;27;20073;-75
2021/06/17 09:06:09;;;;;;;19.38;17.13;;;;;;;;;;5118810;27;20537;-77
2021/06/17 09:08:35;;;;;;;19.20;15.97;;;;;;;;;;5130697;27;20027;-77
2021/06/17 09:11:05;;;;;;;23.27;15.05;;;;;;;;;;5130321;27;20101;-78
2021/06/17 09:13:35;;;;;;;19.17;17.17;;;;;;;;;;5118569;27;20016;-77
2021/06/17 09:16:02;;;;;;;18.08;15.75;;;;;;;;;;5108731;28;20022;-77
2021/06/17 09:18:29;;;;;;;19.48;15.73;;;;;;;;;;5117694;27;20039;-76
2021/06/17 09:20:54;;;;;;;;;;;;;;;;;;5119912;28;20032;-77
2021/06/17 09:23:22;;;;;;;20.55;15.80;;;;;;;;;;5110014;28;19984;-77
2021/06/17 09:25:48;;;;;;;24.38;16.75;;;;;;;;;;5129618;28;20034;-78
2021/06/17 09:28:15;;;;;;;22.63;14.77;;;;;;;;;;5112113;28;20442;-77
2021/06/17 09:30:41;;;;;;;20.08;14.57;;;;;;;;;;5125621;28;20052;-77
2021/06/17 09:33:11;;;;;;;21.30;15.63;;;;;;;;;;5133683;28;20027;-76
2021/06/17 09:35:47;;;;;;;25.02;17.10;;;;;;;;;;5127420;28;20297;-77
2021/06/17 09:38:13;;;;;;;20.20;15.55;;;;;;;;;;5111098;28;20032;-77
2021/06/17 09:40:44;;;;;;;18.03;14.93;;;;;;;;;;5110075;28;20028;-75
2021/06/17 09:43:10;;;;;;;19.52;15.23;;;;;;;;;;5123408;28;20027;-76
2021/06/17 09:45:36;;;;;;;24.27;17.63;;;;;;;;;;5112165;28;20035;-76
2021/06/17 09:48:02;;;;;;;21.07;15.47;;;;;;;;;;5118085;28;20035;-78
2021/06/17 09:50:28;;;;;;;21.23;15.40;;;;;;;;;;5123891;28;20046;-76
2021/06/17 09:52:55;;;;;;;19.45;13.38;;;;;;;;;;5125076;28;20046;-76
2021/06/17 09:55:41;;;;;;;16.88;12.65;;;;;;;;;;5121067;28;20385;-77
2021/06/17 09:58:07;;;;;;;;;;;;;;;;;;5117517;28;20047;-79
2021/06/17 10:00:33;;;;;;;17.90;11.75;;;;;;;;;;5110228;28;20373;-77
2021/06/17 10:03:13;;;;;;;18.47;11.83;;;;;;;;;;5124810;28;20315;-78
2021/06/17 10:05:39;;;;;;;20.48;11.48;;;;;;;;;;5110260;28;20455;-78
2021/06/17 10:08:05;;;;;;;17.67;11.50;;;;;;;;;;5118975;28;20166;-76
2021/06/17 10:10:35;;;;;;;15.73;12.00;;;;;;;;;;5121455;28;20809;-78
2021/06/17 10:13:03;;;;;;;16.55;12.15;;;;;;;;;;5109164;28;20031;-78
2021/06/17 10:15:29;;;;;;;15.98;12.63;;;;;;;;;;5118763;27;20028;-78
2021/06/17 10:17:55;;;;;;;15.60;12.65;;;;;;;;;;5115364;27;20422;-76
2021/06/17 10:20:22;;;;;;;14.02;12.63;;;;;;;;;;5117886;27;20023;-78
2021/06/17 10:22:52;;;;;;;16.63;13.50;;;;;;;;;;5125780;27;20027;-78
2021/06/17 10:25:23;;;;;;;19.60;12.90;;;;;;;;;;5133904;27;20042;-78
2021/06/17 10:27:50;;;;;;;13.95;11.70;;;;;;;;;;5097326;28;20038;-77
2021/06/17 10:30:19;;;;;;;16.60;13.70;;;;;;;;;;5123358;27;20034;-78
2021/06/17 10:32:45;;;;;;;18.50;14.13;;;;;;;;;;5134073;27;20028;-79
2021/06/17 10:35:11;;;;;;;;;;;;;;;;;;5137337;27;20106;-78
2021/06/17 10:37:46;;;;;;;15.38;12.73;;;;;;;;;;5129339;27;19998;-78
2021/06/17 10:40:12;;;;;;;17.92;13.10;;;;;;;;;;5122658;27;20027;-80
2021/06/17 10:42:45;;;;;;;17.20;12.73;;;;;;;;;;5127835;27;20077;-77
2021/06/17 10:45:11;;;;;;;19.30;13.00;;;;;;;;;;5112931;28;20417;-77
2021/06/17 10:50:18;;;;;;;17.15;13.90;;;;;;;;;;5117306;27;20362;-78
2021/06/17 10:52:45;;;;;;;16.92;14.50;;;;;;;;;;5118446;27;20048;-77
2021/06/17 10:55:14;;;;;;;14.93;13.35;;;;;;;;;;5125967;27;20043;-79
2021/06/17 10:57:52;;;;;;;19.10;12.73;;;;;;;;;;5132811;27;20035;-79
2021/06/17 11:00:29;;;;;;;23.38;13.45;;;;;;;;;;5133369;27;20111;-79
2021/06/17 11:03:18;;;;;;;15.35;13.77;;;;;;;;;;5132141;27;20019;-79
2021/06/17 11:05:47;;;;;;;16.98;14.18;;;;;;;;;;5114373;27;20031;-79
2021/06/17 11:08:16;;;;;;;18.58;15.02;;;;;;;;;;5133302;27;20030;-79
2021/06/17 11:10:48;;;;;;;21.98;15.43;;;;;;;;;;5133620;27;20039;-78
2021/06/17 11:13:41;;;;;;;16.42;14.52;;;;;;;;;;5113607;27;20025;-78
2021/06/17 11:16:13;;;;;;;21.40;15.07;;;;;;;;;;5128818;27;20438;-79
2021/06/17 11:18:57;;;;;;;19.70;14.27;;;;;;;;;;5133629;27;20528;-78
2021/06/17 11:21:32;;;;;;;16.77;13.52;;;;;;;;;;5133466;27;20027;-79
2021/06/17 11:24:22;;;;;;;15.90;14.23;;;;;;;;;;5132314;27;20027;-79
2021/06/17 11:26:48;;;;;;;19.65;13.45;;;;;;;;;;5132541;27;20464;-77
2021/06/17 11:29:19;;;;;;;15.63;13.98;;;;;;;;;;5132854;27;20497;-79
2021/06/17 11:31:49;;;;;;;19.63;12.65;;;;;;;;;;5133202;27;20503;-77
2021/06/17 11:34:16;;;;;;;15.50;12.82;;;;;;;;;;5131889;27;20050;-77
2021/06/17 11:36:49;;;;;;;22.80;14.18;;;;;;;;;;5132705;27;20019;-79
2021/06/17 11:39:22;;;;;;;20.58;15.07;;;;;;;;;;5114654;27;20034;-77
2021/06/17 11:41:48;;;;;;;16.63;12.40;;;;;;;;;;5132675;27;20019;-78
2021/06/17 11:44:17;;;;;;;15.48;12.02;;;;;;;;;;5132634;27;20051;-77
2021/06/17 11:46:46;;;;;;;16.50;12.15;;;;;;;;;;5132351;27;20057;-77
2021/06/17 11:49:12;;;;;;;17.90;13.48;;;;;;;;;;5132487;27;20037;-77
2021/06/17 11:51:43;;;;;;;15.45;12.75;;;;;;;;;;5132791;27;20389;-78
2021/06/17 11:54:09;;;;;;;15.13;11.93;;;;;;;;;;5132040;27;20063;-78
2021/06/17 11:56:35;;;;;;;25.73;12.70;;;;;;;;;;5132003;27;20427;-78
2021/06/17 11:59:18;;;;;;;19.10;14.68;;;;;;;;;;5131854;27;20091;-77
2021/06/17 12:02:02;;;;;;;15.68;13.75;;;;;;;;;;5132622;27;20068;-76
2021/06/17 12:04:44;;;;;;;12.68;11.48;;;;;;;;;;5114128;27;20484;-78
2021/06/17 12:07:10;;;;;;;20.63;12.68;;;;;;;;;;5131192;27;20106;-76
2021/06/17 12:09:38;;;;;;;18.40;13.85;;;;;;;;;;5131451;27;20113;-77
2021/06/17 12:12:20;;;;;;;15.10;12.90;;;;;;;;;;5131797;27;20049;-79
2021/06/17 12:14:47;;;;;;;18.58;12.38;;;;;;;;;;5132532;27;20381;-78
2021/06/17 12:17:25;;;;;;;15.32;11.90;;;;;;;;;;5112895;27;20531;-77
2021/06/17 12:19:55;;;;;;;23.10;13.43;;;;;;;;;;5131806;27;20478;-77
2021/06/17 12:22:21;;;;;;;16.58;12.10;;;;;;;;;;5112936;27;20034;-77
2021/06/17 12:24:47;;;;;;;17.85;12.07;;;;;;;;;;5132234;27;20057;-77
2021/06/17 12:27:13;;;;;;;13.77;12.40;;;;;;;;;;5131458;27;20062;-77
2021/06/17 12:29:39;;;;;;;13.63;11.50;;;;;;;;;;5130768;27;20035;-77
2021/06/17 12:32:05;;;;;;;13.15;10.60;;;;;;;;;;5131778;27;20027;-78
2021/06/17 12:34:39;;;;;;;13.57;10.52;;;;;;;;;;5131825;27;20042;-77
2021/06/17 12:37:12;;;;;;;14.65;10.52;;;;;;;;;;5131830;27;20035;-77
2021/06/17 12:39:39;;;;;;;14.52;11.90;;;;;;;;;;5130972;27;20036;-77
2021/06/17 12:42:09;;;;;;;14.38;10.93;;;;;;;;;;5131136;27;20114;-77
2021/06/17 12:44:36;;;;;;;13.68;10.88;;;;;;;;;;5132061;27;20055;-78
2021/06/17 12:47:05;;;;;;;26.80;11.15;;;;;;;;;;5131965;27;20019;-78
2021/06/17 12:52:25;;;;;;;15.02;10.57;;;;;;;;;;5131097;27;20073;-76
2021/06/17 12:54:52;;;;;;;16.30;10.95;;;;;;;;;;5131350;27;20023;-77
2021/06/17 12:57:19;;;;;;;18.33;10.40;;;;;;;;;;5131678;27;20027;-77
2021/06/17 13:00:04;;;;;;;14.32;11.25;;;;;;;;;;5131066;27;20023;-76
2021/06/17 13:02:30;;;;;;;13.07;10.73;;;;;;;;;;5131064;27;20016;-77
2021/06/17 13:05:00;;;;;;;12.57;11.30;;;;;;;;;;5131227;27;20035;-78
2021/06/17 13:07:27;;;;;;;15.15;10.20;;;;;;;;;;5131440;27;20027;-78
2021/06/17 13:10:08;;;;;;;13.02;10.75;;;;;;;;;;5116494;27;20034;-78
2021/06/17 13:12:34;;;;;;;15.48;9.88;;;;;;;;;;5114830;27;20558;-78
2021/06/17 13:15:09;;;;;;;13.25;10.05;;;;;;;;;;5114754;27;20098;-78
2021/06/17 13:17:36;;;;;;;11.93;9.65;;;;;;;;;;5128365;27;20070;-79
2021/06/17 13:20:03;;;;;;;13.88;10.60;;;;;;;;;;5130029;27;20027;-78
2021/06/17 13:22:30;;;;;;;14.88;10.48;;;;;;;;;;5128775;27;20848;-78
2021/06/17 13:25:03;;;;;;;11.25;9.60;;;;;;;;;;5115972;28;20064;-79
2021/06/17 13:27:29;;;;;;;14.35;10.43;;;;;;;;;;5126194;28;20023;-80
2021/06/17 13:30:01;;;;;;;16.00;10.80;;;;;;;;;;5119682;28;20034;-78
2021/06/17 13:32:28;;;;;;;15.45;11.52;;;;;;;;;;5124493;28;20039;-79
2021/06/17 13:34:54;;;;;;;13.77;11.40;;;;;;;;;;5130064;28;20035;-79
2021/06/17 13:37:20;;;;;;;13.25;11.82;;;;;;;;;;5123436;28;20019;-79
2021/06/17 13:39:47;;;;;;;12.43;11.27;;;;;;;;;;5130979;28;20028;-77
2021/06/17 13:42:14;;;;;;;14.00;10.55;;;;;;;;;;5121573;28;20046;-78
2021/06/17 13:44:40;;;;;;;14.15;10.65;;;;;;;;;;5107533;28;20374;-78
2021/06/17 13:47:08;;;;;;;11.43;10.32;;;;;;;;;;5130253;28;20046;-77
2021/06/17 13:49:34;;;;;;;14.05;10.77;;;;;;;;;;5092467;28;20036;-78
2021/06/17 13:52:00;;;;;;;13.20;10.07;;;;;;;;;;5112244;28;20035;-78
2021/06/17 13:54:27;;;;;;;17.25;10.57;;;;;;;;;;5114187;27;20131;-78
2021/06/17 13:56:53;;;;;;;17.48;10.10;;;;;;;;;;5114528;28;20038;-78
2021/06/17 13:59:20;;;;;;;13.20;9.82;;;;;;;;;;5117607;27;20102;-78
2021/06/17 14:01:46;;;;;;;16.05;10.32;;;;;;;;;;5134964;27;20461;-78
2021/06/17 14:04:18;;;;;;;16.00;10.25;;;;;;;;;;5133138;27;20076;-78
2021/06/17 14:06:45;;;;;;;11.40;10.18;;;;;;;;;;5118188;27;20027;-78
2021/06/17 14:09:11;;;;;;;14.02;9.50;;;;;;;;;;5134309;27;20067;-79
2021/06/17 14:11:37;;;;;;;11.02;9.93;;;;;;;;;;5134109;27;20038;-79
2021/06/17 14:14:03;;;;;;;12.57;10.68;;;;;;;;;;5106075;28;20088;-79
2021/06/17 14:16:29;;;;;;;13.88;10.10;;;;;;;;;;5114708;27;20024;-78
2021/06/17 14:18:55;;;;;;;15.55;10.70;;;;;;;;;;5131511;27;20394;-78
2021/06/17 14:21:21;;;;;;;13.13;10.10;;;;;;;;;;5111865;27;20020;-79
2021/06/17 14:23:47;;;;;;;13.20;10.35;;;;;;;;;;5133612;27;20030;-80
2021/06/17 14:26:13;;;;;;;14.57;10.70;;;;;;;;;;5131853;27;20027;-79
2021/06/17 14:28:39;;;;;;;10.93;9.68;;;;;;;;;;5133550;27;20039;-80
2021/06/17 14:31:05;;;;;;;13.70;9.70;;;;;;;;;;5128061;27;20477;-79
2021/06/17 14:33:31;;;;;;;15.07;10.23;;;;;;;;;;5113363;27;20535;-80